Time;durP1;ratioP1;P1;durP2;ratioP2;P2;SDS_P1;SDS_P2;PMS_P1;PMS_P2;Temp;Humidity;BMP_temperature;BMP_pressure;BME280_temperature;BME280_humidity;BME280_pressure;Samples;Min_cycle;Max_cycle;Signal;HPM_P1;HPM_P2
2024/01/30 04:00:52;;;;;;;4.32;2.67;;;22.10;26.10;;;;;;5772688;23;46913;-86
2024/01/30 04:03:17;;;;;;;4.80;3.00;;;22.20;26.20;;;;;;4982718;28;45131;-84
2024/01/30 04:05:43;;;;;;;4.30;3.10;;;22.10;26.10;;;;;;4960642;28;44886;-84
2024/01/30 04:08:09;;;;;;;5.90;2.88;;;22.20;26.10;;;;;;4959581;28;44993;-84
2024/01/30 04:10:35;;;;;;;5.00;3.35;;;22.30;26.10;;;;;;4949313;28;47581;-83
2024/01/30 04:13:01;;;;;;;4.45;3.20;;;22.20;26.10;;;;;;4999941;28;44935;-84
2024/01/30 04:15:30;;;;;;;4.97;3.30;;;22.20;26.10;;;;;;4976733;28;45374;-83
2024/01/30 04:18:01;;;;;;;3.83;2.50;;;22.30;26.10;;;;;;4975543;28;45565;-84
2024/01/30 04:20:31;;;;;;;4.20;3.20;;;22.30;26.00;;;;;;4999573;28;46271;-85
2024/01/30 04:22:56;;;;;;;4.10;2.97;;;22.30;26.00;;;;;;4985647;28;45383;-83
2024/01/30 04:25:23;;;;;;;3.03;2.47;;;22.30;26.00;;;;;;4999927;28;45256;-84
2024/01/30 04:27:48;;;;;;;4.25;3.05;;;22.30;26.00;;;;;;5003456;28;45523;-84
2024/01/30 04:30:14;;;;;;;4.68;3.05;;;22.30;26.00;;;;;;4971270;28;46266;-83
2024/01/30 04:32:40;;;;;;;3.65;2.90;;;22.30;26.00;;;;;;4978307;28;45353;-83
2024/01/30 04:35:09;;;;;;;4.25;2.95;;;22.30;26.00;;;;;;4975590;28;45360;-86
2024/01/30 04:37:34;;;;;;;4.28;3.20;;;22.30;25.90;;;;;;4979409;28;45453;-83
2024/01/30 04:40:00;;;;;;;4.53;3.00;;;22.30;26.00;;;;;;4977563;28;46087;-83
2024/01/30 04:42:25;;;;;;;4.10;2.75;;;22.30;25.90;;;;;;4964472;28;45054;-84
2024/01/30 04:44:51;;;;;;;5.22;3.22;;;22.30;25.90;;;;;;4970612;28;45254;-84
2024/01/30 04:47:17;;;;;;;4.47;2.78;;;22.30;25.90;;;;;;4970726;28;45253;-84
2024/01/30 04:49:42;;;;;;;4.47;2.90;;;22.30;25.90;;;;;;4984453;28;47205;-84
2024/01/30 04:52:08;;;;;;;4.15;3.03;;;22.30;25.90;;;;;;4968460;28;45400;-84
2024/01/30 04:54:34;;;;;;;3.40;3.00;;;22.30;25.90;;;;;;4962231;28;45214;-85
2024/01/30 04:57:00;;;;;;;4.60;3.28;;;22.40;25.90;;;;;;4976191;28;44804;-86
2024/01/30 04:59:26;;;;;;;3.30;2.85;;;22.30;25.90;;;;;;4986899;28;46349;-83
2024/01/30 05:01:52;;;;;;;3.22;2.55;;;22.40;25.90;;;;;;4983972;28;45681;-83
2024/01/30 05:04:18;;;;;;;3.42;2.60;;;22.40;25.90;;;;;;4975433;28;44997;-83
2024/01/30 05:06:43;;;;;;;3.08;2.78;;;22.40;25.90;;;;;;4982099;28;45311;-84
2024/01/30 05:09:10;;;;;;;4.13;3.05;;;22.40;25.90;;;;;;4975141;28;47219;-84
2024/01/30 05:11:42;;;;;;;4.47;3.05;;;22.40;25.90;;;;;;5002369;28;45182;-86
2024/01/30 05:14:08;;;;;;;4.82;3.00;;;22.40;25.80;;;;;;4974917;28;46062;-85
2024/01/30 05:16:34;;;;;;;3.95;2.83;;;22.40;25.80;;;;;;4975817;28;45235;-83
2024/01/30 05:19:00;;;;;;;3.95;3.05;;;22.40;25.80;;;;;;4979547;28;46018;-83
2024/01/30 05:21:25;;;;;;;4.05;3.10;;;22.30;25.80;;;;;;4970345;28;45256;-83
2024/01/30 05:23:51;;;;;;;3.97;2.70;;;22.40;25.80;;;;;;4970547;28;45527;-83
2024/01/30 05:26:18;;;;;;;3.70;2.95;;;22.40;25.80;;;;;;4979384;28;45788;-84
2024/01/30 05:28:46;;;;;;;4.43;2.72;;;22.30;25.80;;;;;;4991476;28;46268;-83
2024/01/30 05:31:12;;;;;;;2.90;2.60;;;22.40;25.80;;;;;;5005235;28;45540;-84
2024/01/30 05:33:38;;;;;;;4.00;2.78;;;22.30;25.80;;;;;;4984168;28;45074;-83
2024/01/30 05:36:05;;;;;;;3.92;3.00;;;22.30;25.80;;;;;;4992739;28;45508;-83
2024/01/30 05:38:31;;;;;;;3.42;2.78;;;22.30;25.80;;;;;;5006862;28;45368;-84
2024/01/30 05:40:58;;;;;;;3.50;2.63;;;22.30;25.80;;;;;;5002588;28;45621;-84
2024/01/30 05:43:24;;;;;;;3.67;2.47;;;22.30;25.80;;;;;;5007055;28;45431;-83
2024/01/30 05:45:50;;;;;;;3.40;2.72;;;22.40;25.80;;;;;;4990186;28;45277;-83
2024/01/30 05:48:16;;;;;;;4.40;2.53;;;22.30;25.80;;;;;;5004776;28;45412;-86
2024/01/30 05:50:42;;;;;;;5.38;2.67;;;22.30;25.80;;;;;;4995913;28;45377;-84
2024/01/30 05:53:08;;;;;;;3.05;2.38;;;22.40;25.80;;;;;;4994398;28;45114;-84
2024/01/30 05:55:34;;;;;;;3.90;2.80;;;22.30;25.80;;;;;;5010156;28;44979;-86
2024/01/30 05:58:00;;;;;;;3.25;2.42;;;22.30;25.70;;;;;;4998189;28;46584;-84
2024/01/30 06:00:29;;;;;;;4.25;2.80;;;22.30;25.70;;;;;;4971405;28;44969;-84
2024/01/30 06:02:55;;;;;;;3.92;2.80;;;22.30;25.70;;;;;;4992990;28;45188;-84
2024/01/30 06:05:21;;;;;;;3.28;2.72;;;22.30;25.70;;;;;;4975203;28;45412;-83
2024/01/30 06:07:47;;;;;;;3.33;2.60;;;22.30;25.70;;;;;;5007173;28;46663;-84
2024/01/30 06:10:15;;;;;;;3.65;2.63;;;22.30;25.70;;;;;;4988176;28;45495;-84
2024/01/30 06:12:41;;;;;;;3.58;2.60;;;22.30;25.80;;;;;;4993540;28;45684;-84
2024/01/30 06:15:12;;;;;;;4.03;2.13;;;22.30;25.70;;;;;;5010149;28;45268;-85
2024/01/30 06:17:39;;;;;;;3.20;2.45;;;22.30;25.80;;;;;;4978229;28;45431;-83
2024/01/30 06:20:07;;;;;;;2.42;2.22;;;22.30;25.80;;;;;;4979488;28;45378;-87
2024/01/30 06:22:33;;;;;;;3.55;2.67;;;22.30;25.70;;;;;;5011858;28;44732;-83
2024/01/30 06:24:58;;;;;;;3.38;2.50;;;22.30;25.80;;;;;;5012437;28;45335;-84
2024/01/30 06:27:24;;;;;;;3.85;2.63;;;22.30;25.70;;;;;;4989077;28;46177;-84
2024/01/30 06:29:50;;;;;;;4.15;2.90;;;22.30;25.80;;;;;;5003477;28;45437;-85
2024/01/30 06:32:16;;;;;;;3.92;3.00;;;22.30;25.70;;;;;;4986769;28;45575;-85
2024/01/30 06:34:44;;;;;;;4.72;3.25;;;22.20;25.70;;;;;;4963015;28;44978;-83
2024/01/30 06:37:10;;;;;;;4.47;2.90;;;22.30;25.80;;;;;;4980786;28;46223;-84
2024/01/30 06:39:36;;;;;;;3.85;2.70;;;22.30;25.70;;;;;;4995754;28;45431;-83
2024/01/30 06:42:02;;;;;;;4.75;3.15;;;22.20;25.70;;;;;;4989090;28;45672;-84
2024/01/30 06:44:28;;;;;;;3.40;2.33;;;22.20;26.10;;;;;;4993122;28;45493;-83
2024/01/30 06:46:53;;;;;;;2.80;2.50;;;22.30;25.80;;;;;;4965192;28;45834;-84
2024/01/30 06:49:21;;;;;;;4.13;2.72;;;22.20;25.70;;;;;;4995814;28;44788;-84
2024/01/30 06:51:47;;;;;;;4.95;2.75;;;22.20;25.70;;;;;;4978470;28;45859;-84
2024/01/30 06:54:13;;;;;;;4.20;2.75;;;22.20;25.70;;;;;;4995320;28;45316;-85
2024/01/30 06:56:39;;;;;;;3.40;2.55;;;22.20;25.70;;;;;;4992079;28;46153;-84
2024/01/30 06:59:05;;;;;;;3.75;2.50;;;22.20;25.80;;;;;;4981771;28;45550;-84
2024/01/30 07:01:30;;;;;;;5.72;2.60;;;22.20;25.70;;;;;;4976800;28;45391;-84
2024/01/30 07:03:57;;;;;;;3.67;2.70;;;22.20;25.70;;;;;;4981287;28;44817;-83
2024/01/30 07:06:22;;;;;;;5.55;2.70;;;22.20;25.70;;;;;;4975358;28;46608;-83
2024/01/30 07:08:49;;;;;;;4.78;2.60;;;22.20;25.70;;;;;;4977696;28;45346;-85
2024/01/30 07:11:21;;;;;;;5.38;2.75;;;22.20;25.70;;;;;;4992219;28;44746;-83
2024/01/30 07:13:48;;;;;;;4.05;2.90;;;22.20;25.70;;;;;;4983777;28;44963;-84
2024/01/30 07:16:14;;;;;;;3.28;2.83;;;22.20;25.80;;;;;;4972721;28;46466;-84
2024/01/30 07:18:40;;;;;;;5.22;3.17;;;22.20;25.70;;;;;;5005689;28;45195;-84
2024/01/30 07:21:06;;;;;;;5.60;3.38;;;22.20;25.70;;;;;;4976548;28;46406;-84
2024/01/30 07:23:32;;;;;;;3.08;2.78;;;22.10;25.70;;;;;;4981876;28;44983;-83
2024/01/30 07:25:57;;;;;;;5.70;2.90;;;22.10;25.70;;;;;;4978543;28;47351;-84
2024/01/30 07:28:23;;;;;;;4.25;2.92;;;22.10;25.80;;;;;;4966803;28;45277;-84
2024/01/30 07:30:50;;;;;;;3.95;2.75;;;22.20;25.80;;;;;;4974199;28;45018;-84
2024/01/30 07:33:38;;;;;;;4.75;3.03;;;22.10;25.70;;;;;;4984514;28;45557;-84
2024/01/30 07:36:04;;;;;;;3.83;2.88;;;22.10;25.70;;;;;;4989506;28;46282;-84
2024/01/30 07:38:32;;;;;;;5.72;2.90;;;22.10;25.80;;;;;;4994939;28;45578;-84
2024/01/30 07:40:58;;;;;;;4.47;2.90;;;22.10;25.80;;;;;;4994080;28;45626;-84
2024/01/30 07:43:24;;;;;;;3.58;2.63;;;22.10;25.80;;;;;;4995727;28;45591;-84
2024/01/30 07:45:51;;;;;;;3.38;2.78;;;22.10;25.80;;;;;;4987507;28;46143;-84
2024/01/30 07:48:17;;;;;;;4.45;3.15;;;22.10;25.80;;;;;;5000119;28;44586;-84
2024/01/30 07:50:42;;;;;;;4.82;3.05;;;22.00;25.70;;;;;;4988075;28;45290;-87
2024/01/30 07:53:08;;;;;;;4.35;3.05;;;22.00;25.70;;;;;;5004539;28;44906;-84
2024/01/30 07:55:34;;;;;;;3.80;3.15;;;22.10;25.80;;;;;;5001106;28;45547;-83
2024/01/30 07:58:00;;;;;;;4.75;3.13;;;22.10;25.80;;;;;;5015954;28;44909;-83
2024/01/30 08:00:26;;;;;;;3.97;3.03;;;22.00;25.70;;;;;;4997363;28;45622;-84
2024/01/30 08:02:54;;;;;;;4.20;3.03;;;22.00;25.80;;;;;;4993346;28;45295;-84
2024/01/30 08:05:22;;;;;;;5.57;3.13;;;22.00;25.70;;;;;;4974130;28;46041;-85
2024/01/30 08:07:51;;;;;;;5.43;3.30;;;22.00;25.70;;;;;;4974760;28;45315;-84
2024/01/30 08:10:18;;;;;;;3.72;2.75;;;22.00;25.80;;;;;;4989778;28;45518;-84
2024/01/30 08:12:44;;;;;;;3.50;2.95;;;22.00;25.80;;;;;;4978890;28;45431;-84
2024/01/30 08:15:12;;;;;;;6.03;3.08;;;22.00;25.80;;;;;;4976817;28;45578;-85
2024/01/30 08:17:38;;;;;;;5.50;3.40;;;22.00;25.80;;;;;;4975091;28;45379;-83
2024/01/30 08:20:11;;;;;;;5.63;3.75;;;22.00;25.80;;;;;;5011579;28;46001;-86
2024/01/30 08:22:40;;;;;;;;;;;22.00;25.80;;;;;;4981824;28;45193;-84
2024/01/30 08:25:10;;;;;;;5.38;2.92;;;22.00;25.80;;;;;;4987268;28;46135;-85
2024/01/30 08:27:38;;;;;;;3.92;2.80;;;22.00;25.80;;;;;;5008916;28;44900;-84
2024/01/30 08:30:16;;;;;;;4.00;2.83;;;22.00;25.80;;;;;;4968771;28;45121;-86
2024/01/30 08:32:42;;;;;;;4.50;3.20;;;21.90;25.70;;;;;;5003536;28;45411;-83
2024/01/30 08:35:13;;;;;;;4.88;3.10;;;21.90;25.90;;;;;;4974707;28;47300;-84
2024/01/30 08:37:39;;;;;;;4.22;3.22;;;22.00;25.80;;;;;;4976895;28;45105;-84
2024/01/30 08:40:08;;;;;;;4.20;3.25;;;22.00;25.80;;;;;;4988349;28;45688;-87
2024/01/30 08:42:33;;;;;;;3.75;3.13;;;21.90;25.80;;;;;;4974792;28;44874;-85
2024/01/30 08:44:59;;;;;;;3.63;2.85;;;21.90;25.80;;;;;;4966006;28;46488;-84
2024/01/30 08:47:25;;;;;;;5.07;3.08;;;21.90;25.80;;;;;;4968391;28;45599;-84
2024/01/30 08:49:51;;;;;;;5.43;3.30;;;21.90;25.80;;;;;;4981772;28;45488;-84
2024/01/30 08:52:17;;;;;;;4.18;3.42;;;21.90;25.80;;;;;;4976567;28;45231;-83
2024/01/30 08:54:43;;;;;;;3.97;3.33;;;21.90;25.90;;;;;;4990116;28;45675;-84
2024/01/30 08:57:09;;;;;;;4.78;3.13;;;21.90;25.80;;;;;;5002649;28;45495;-83
2024/01/30 08:59:35;;;;;;;5.25;3.17;;;21.90;25.90;;;;;;5002574;28;45066;-83
2024/01/30 09:02:02;;;;;;;3.83;3.17;;;21.90;25.90;;;;;;4968773;28;45541;-84
2024/01/30 09:04:28;;;;;;;4.75;3.17;;;21.90;25.90;;;;;;4974041;28;46514;-84
2024/01/30 09:06:54;;;;;;;4.75;3.38;;;21.90;25.90;;;;;;4986476;28;44729;-84
2024/01/30 09:09:21;;;;;;;3.90;3.40;;;21.90;25.90;;;;;;5011587;28;44735;-85
2024/01/30 09:11:46;;;;;;;3.45;2.63;;;21.80;25.80;;;;;;5008980;28;46113;-86
2024/01/30 09:14:13;;;;;;;4.75;3.70;;;21.80;25.80;;;;;;4988556;28;45725;-85
2024/01/30 09:16:39;;;;;;;4.15;3.22;;;21.80;25.80;;;;;;4980813;28;45828;-84
2024/01/30 09:19:05;;;;;;;4.93;3.30;;;21.80;25.90;;;;;;4986217;28;45414;-84
2024/01/30 09:21:30;;;;;;;4.00;3.30;;;21.80;25.90;;;;;;4975841;28;45171;-84
2024/01/30 09:24:01;;;;;;;5.28;3.30;;;21.80;25.90;;;;;;4970588;28;46570;-84
2024/01/30 09:26:28;;;;;;;7.57;3.75;;;21.80;25.90;;;;;;4976837;28;45456;-83
2024/01/30 09:28:53;;;;;;;4.85;3.60;;;21.80;25.90;;;;;;4996242;28;45381;-85
2024/01/30 09:31:19;;;;;;;4.43;3.22;;;21.80;25.90;;;;;;4960413;28;44849;-83
2024/01/30 09:33:47;;;;;;;4.70;3.58;;;21.80;25.90;;;;;;4976115;28;45989;-84
2024/01/30 09:36:15;;;;;;;5.55;3.55;;;21.80;25.90;;;;;;4992638;28;45574;-83
2024/01/30 09:38:41;;;;;;;4.35;3.53;;;21.80;26.00;;;;;;4992122;28;44955;-83
2024/01/30 09:41:09;;;;;;;4.47;3.35;;;21.80;25.90;;;;;;4985784;28;45501;-87
2024/01/30 09:43:35;;;;;;;5.13;3.72;;;21.80;26.00;;;;;;4991505;28;45904;-84
2024/01/30 09:46:03;;;;;;;5.80;3.38;;;21.80;26.00;;;;;;4985078;28;45713;-84
2024/01/30 09:48:29;;;;;;;5.20;3.72;;;21.70;26.00;;;;;;5003889;28;45192;-83
2024/01/30 09:50:55;;;;;;;5.85;3.70;;;21.70;26.00;;;;;;4984506;28;46118;-84
2024/01/30 09:53:21;;;;;;;3.85;3.35;;;21.70;26.00;;;;;;4967908;28;45610;-83
2024/01/30 09:55:47;;;;;;;5.90;3.78;;;21.70;26.00;;;;;;5003675;28;45556;-84
2024/01/30 09:58:13;;;;;;;4.88;3.67;;;21.70;26.00;;;;;;4979046;28;44989;-84
2024/01/30 10:00:42;;;;;;;5.05;3.97;;;21.70;26.00;;;;;;4988088;28;45455;-84
2024/01/30 10:03:08;;;;;;;6.07;3.60;;;21.70;26.00;;;;;;4979144;28;45175;-84
2024/01/30 10:05:35;;;;;;;5.00;3.75;;;21.70;26.00;;;;;;4978964;28;45606;-85
2024/01/30 10:08:02;;;;;;;4.68;3.70;;;21.70;26.00;;;;;;4997471;28;44742;-84
2024/01/30 10:10:30;;;;;;;5.38;4.20;;;21.70;26.00;;;;;;4975274;28;45519;-85
2024/01/30 10:12:56;;;;;;;6.85;3.72;;;21.70;26.10;;;;;;4981447;28;47229;-86
2024/01/30 10:15:23;;;;;;;4.10;3.58;;;21.70;26.10;;;;;;5003030;28;45497;-84
2024/01/30 10:17:49;;;;;;;4.65;3.35;;;21.70;26.10;;;;;;4978701;28;45562;-84
2024/01/30 10:20:15;;;;;;;4.90;3.95;;;21.60;26.10;;;;;;4990498;28;45675;-83
2024/01/30 10:22:44;;;;;;;5.18;3.72;;;21.60;26.10;;;;;;5012157;28;46074;-84
2024/01/30 10:25:09;;;;;;;4.32;3.60;;;21.60;26.10;;;;;;4962170;28;44945;-85
2024/01/30 10:27:36;;;;;;;4.80;3.40;;;21.60;26.10;;;;;;4999748;28;45024;-85
2024/01/30 10:30:14;;;;;;;;;;;;;;;;;;;;;
2024/01/30 10:32:40;;;;;;;5.72;3.88;;;21.60;26.10;;;;;;4986290;28;46375;-83
2024/01/30 10:35:14;;;;;;;3.83;3.42;;;21.60;26.10;;;;;;4979805;28;45230;-88
2024/01/30 10:37:43;;;;;;;4.22;3.63;;;21.60;26.10;;;;;;4983144;28;45342;-84
2024/01/30 10:40:13;;;;;;;5.72;3.63;;;21.60;26.20;;;;;;4978493;28;45246;-86
2024/01/30 10:42:42;;;;;;;5.32;4.05;;;21.60;26.20;;;;;;4976333;28;46792;-83
2024/01/30 10:45:15;;;;;;;4.05;3.55;;;21.50;26.20;;;;;;4975840;28;45074;-84
2024/01/30 10:47:48;;;;;;;4.85;3.75;;;21.60;26.20;;;;;;4993283;28;45075;-86
2024/01/30 10:50:15;;;;;;;4.32;3.50;;;21.50;26.20;;;;;;4959072;28;44801;-84
2024/01/30 10:52:42;;;;;;;4.93;3.80;;;21.60;26.20;;;;;;4990484;28;46639;-85
2024/01/30 10:55:07;;;;;;;4.50;3.78;;;21.60;26.20;;;;;;4977522;28;45155;-84
2024/01/30 10:57:34;;;;;;;4.95;3.63;;;21.50;26.20;;;;;;4993701;28;45582;-84
2024/01/30 11:00:00;;;;;;;4.20;3.50;;;21.60;26.30;;;;;;4970168;28;45265;-86
2024/01/30 11:02:26;;;;;;;4.85;3.83;;;21.60;26.30;;;;;;4970985;28;47200;-83
2024/01/30 11:04:59;;;;;;;4.72;3.70;;;21.50;26.30;;;;;;4982862;28;44937;-84
2024/01/30 11:07:27;;;;;;;6.40;3.70;;;21.50;26.30;;;;;;4991409;28;45419;-84
2024/01/30 11:09:53;;;;;;;5.63;3.95;;;21.50;26.30;;;;;;4976001;28;45298;-85
2024/01/30 11:12:24;;;;;;;4.95;3.47;;;21.50;26.30;;;;;;4974600;28;46101;-84
2024/01/30 11:15:00;;;;;;;5.80;4.00;;;21.50;26.30;;;;;;4974881;28;45388;-85
2024/01/30 11:17:28;;;;;;;4.40;3.53;;;21.50;26.30;;;;;;4995843;28;45784;-84
2024/01/30 11:19:59;;;;;;;4.78;3.63;;;21.50;26.30;;;;;;4989826;28;44918;-85
2024/01/30 11:22:26;;;;;;;5.15;3.88;;;21.50;26.30;;;;;;4990237;28;47104;-83
2024/01/30 11:24:51;;;;;;;5.00;3.88;;;21.40;26.30;;;;;;4987750;28;45204;-84
2024/01/30 11:27:17;;;;;;;5.85;3.88;;;21.40;26.30;;;;;;4972679;28;45528;-84
2024/01/30 11:29:43;;;;;;;4.35;3.33;;;21.40;26.30;;;;;;5005524;28;45357;-84
2024/01/30 11:32:08;;;;;;;4.57;3.60;;;21.40;26.30;;;;;;4972763;28;46363;-83
2024/01/30 11:34:34;;;;;;;5.57;3.78;;;21.40;26.40;;;;;;4985754;28;45559;-84
2024/01/30 11:37:04;;;;;;;3.65;3.17;;;21.40;26.40;;;;;;5006572;28;44922;-85
2024/01/30 11:39:29;;;;;;;6.47;4.53;;;21.40;26.40;;;;;;4990145;28;45053;-83
2024/01/30 11:41:55;;;;;;;5.43;3.80;;;21.40;26.40;;;;;;4989899;28;46346;-83
2024/01/30 11:44:21;;;;;;;5.28;4.05;;;21.40;26.40;;;;;;4980206;28;45836;-84
2024/01/30 11:46:48;;;;;;;5.65;3.83;;;21.40;26.40;;;;;;4989574;28;46207;-84
2024/01/30 11:49:14;;;;;;;5.80;3.88;;;21.40;26.40;;;;;;4992645;28;45400;-83
2024/01/30 11:51:40;;;;;;;6.05;3.70;;;21.40;26.50;;;;;;4993174;28;46090;-83
2024/01/30 11:54:08;;;;;;;4.43;3.95;;;21.40;26.50;;;;;;5006850;28;45349;-83
2024/01/30 11:56:33;;;;;;;4.78;3.50;;;21.40;26.50;;;;;;4989204;28;45542;-83
2024/01/30 11:59:00;;;;;;;8.25;3.95;;;21.40;26.50;;;;;;4974985;28;45433;-84
2024/01/30 12:01:27;;;;;;;7.13;4.50;;;21.40;26.50;;;;;;4966868;28;46263;-83
2024/01/30 12:03:53;;;;;;;5.57;4.13;;;21.40;26.60;;;;;;4992023;28;46079;-83
2024/01/30 12:06:18;;;;;;;5.60;4.05;;;21.30;26.50;;;;;;4988997;28;45514;-83
2024/01/30 12:08:59;;;;;;;6.18;4.35;;;21.30;26.60;;;;;;5008978;28;45431;-85
2024/01/30 12:11:46;;;;;;;5.93;4.50;;;21.40;26.60;;;;;;4987626;28;46295;-85
2024/01/30 12:14:12;;;;;;;6.60;4.30;;;21.30;26.70;;;;;;4977022;28;44884;-84
2024/01/30 12:16:38;;;;;;;7.13;4.28;;;21.30;26.60;;;;;;4966122;28;45661;-83
2024/01/30 12:19:05;;;;;;;4.38;3.60;;;21.30;26.60;;;;;;4976337;28;45005;-83
2024/01/30 12:21:31;;;;;;;6.53;4.35;;;21.30;26.70;;;;;;4988216;28;45551;-84
2024/01/30 12:23:58;;;;;;;6.15;3.85;;;21.30;26.70;;;;;;4972015;28;45266;-86
2024/01/30 12:26:27;;;;;;;6.03;4.20;;;21.30;26.70;;;;;;4983971;28;45801;-86
2024/01/30 12:28:57;;;;;;;8.45;4.47;;;21.30;26.80;;;;;;5002454;28;45009;-85
2024/01/30 12:31:30;;;;;;;6.15;4.03;;;21.30;26.80;;;;;;4988078;28;46042;-85
2024/01/30 12:33:59;;;;;;;6.22;3.83;;;21.30;26.80;;;;;;4981827;28;45260;-87
2024/01/30 12:36:24;;;;;;;5.53;4.35;;;21.30;26.80;;;;;;4998760;28;45030;-85
2024/01/30 12:38:50;;;;;;;5.10;3.97;;;21.30;26.80;;;;;;4977258;28;45511;-85
2024/01/30 12:41:15;;;;;;;6.10;4.28;;;21.30;26.80;;;;;;4990145;28;46021;-85
2024/01/30 12:43:42;;;;;;;6.97;4.47;;;21.30;26.90;;;;;;4992847;28;45515;-84
2024/01/30 12:46:08;;;;;;;6.80;4.30;;;21.30;26.90;;;;;;4995948;28;45358;-86
2024/01/30 12:48:34;;;;;;;6.10;3.65;;;21.30;26.90;;;;;;4983880;28;45259;-86
2024/01/30 12:51:00;;;;;;;5.40;3.88;;;21.20;26.90;;;;;;5002719;28;46449;-85
2024/01/30 12:53:27;;;;;;;5.13;4.10;;;21.20;26.90;;;;;;4991347;28;45009;-86
2024/01/30 12:55:54;;;;;;;5.25;3.97;;;21.20;26.90;;;;;;4967925;28;45435;-86
2024/01/30 12:58:20;;;;;;;5.85;4.20;;;21.20;26.90;;;;;;4990082;28;45600;-86
2024/01/30 13:00:47;;;;;;;5.15;3.80;;;21.20;26.90;;;;;;4984931;28;46692;-90
2024/01/30 13:03:12;;;;;;;5.07;3.80;;;21.20;27.00;;;;;;4976861;28;45409;-87
2024/01/30 13:05:38;;;;;;;6.32;4.22;;;21.20;27.00;;;;;;4996824;28;45220;-86
2024/01/30 13:08:05;;;;;;;7.15;4.00;;;21.20;27.00;;;;;;4975929;28;45525;-85
2024/01/30 13:10:31;;;;;;;5.38;4.03;;;21.20;27.00;;;;;;4979637;28;47121;-88
2024/01/30 13:12:57;;;;;;;5.13;3.92;;;21.20;27.00;;;;;;4993304;28;45030;-85
2024/01/30 13:15:23;;;;;;;5.03;3.97;;;21.20;27.00;;;;;;5002309;28;44937;-87
2024/01/30 13:17:50;;;;;;;4.72;3.65;;;21.20;27.00;;;;;;4970777;28;45784;-85
2024/01/30 13:20:19;;;;;;;5.43;3.95;;;21.20;27.10;;;;;;5000033;28;46237;-85
2024/01/30 13:22:45;;;;;;;6.45;3.70;;;21.20;27.10;;;;;;4990582;28;45461;-85
2024/01/30 13:25:11;;;;;;;4.93;3.80;;;21.20;27.10;;;;;;4998069;28;44953;-85
2024/01/30 13:27:37;;;;;;;4.72;3.92;;;21.20;27.10;;;;;;5000496;28;45275;-83
2024/01/30 13:30:15;;;;;;;5.22;3.55;;;21.20;27.10;;;;;;4996176;28;45666;-86
2024/01/30 13:32:43;;;;;;;6.05;3.80;;;21.10;27.10;;;;;;4978948;28;45123;-85
2024/01/30 13:35:09;;;;;;;5.20;3.75;;;21.10;27.10;;;;;;4965299;28;45447;-86
2024/01/30 13:37:35;;;;;;;4.93;3.67;;;21.10;27.10;;;;;;4972693;28;46398;-85
2024/01/30 13:40:09;;;;;;;5.93;4.03;;;21.10;27.10;;;;;;5013630;28;45588;-85
2024/01/30 13:42:35;;;;;;;5.35;3.80;;;21.10;27.70;;;;;;4994124;28;45062;-85
2024/01/30 13:45:01;;;;;;;6.00;4.13;;;21.10;27.20;;;;;;4975240;28;44943;-86
2024/01/30 13:47:27;;;;;;;7.03;4.15;;;21.10;27.20;;;;;;4987037;28;45711;-84
2024/01/30 13:49:52;;;;;;;5.38;4.20;;;21.00;27.20;;;;;;4998499;28;45198;-84
2024/01/30 13:52:22;;;;;;;5.80;4.55;;;21.00;27.20;;;;;;4994530;28;45903;-84
2024/01/30 13:54:48;;;;;;;6.18;4.60;;;21.00;27.30;;;;;;4991529;28;45116;-86
2024/01/30 13:57:14;;;;;;;9.63;4.38;;;21.10;27.30;;;;;;5003272;28;45611;-84
2024/01/30 13:59:40;;;;;;;6.80;4.65;;;21.00;27.30;;;;;;4992725;28;46532;-85
2024/01/30 14:02:08;;;;;;;7.18;4.03;;;21.00;27.30;;;;;;4985288;28;45240;-85
2024/01/30 14:04:34;;;;;;;5.32;4.28;;;21.00;27.40;;;;;;4992539;28;45672;-86
2024/01/30 14:06:59;;;;;;;6.53;4.68;;;21.00;27.40;;;;;;4967572;28;45607;-86
2024/01/30 14:09:25;;;;;;;7.20;4.32;;;21.00;27.40;;;;;;4981027;28;45606;-84
2024/01/30 14:11:55;;;;;;;6.88;3.92;;;21.00;27.40;;;;;;4975681;28;45194;-86
2024/01/30 14:14:20;;;;;;;5.38;4.40;;;21.00;27.50;;;;;;5013601;28;45442;-85
2024/01/30 14:16:46;;;;;;;7.00;4.47;;;21.00;27.50;;;;;;4967643;28;45657;-84
2024/01/30 14:19:11;;;;;;;6.15;4.25;;;21.00;27.50;;;;;;4973329;28;46505;-85
2024/01/30 14:21:37;;;;;;;5.65;4.32;;;21.00;27.50;;;;;;4977647;28;45056;-85
2024/01/30 14:24:04;;;;;;;5.57;4.10;;;21.00;27.60;;;;;;4974407;28;45211;-85
2024/01/30 14:26:30;;;;;;;6.82;3.60;;;21.00;27.50;;;;;;4995424;28;46113;-86
2024/01/30 14:28:56;;;;;;;5.97;4.40;;;21.10;27.60;;;;;;4985001;28;46162;-85
2024/01/30 14:31:24;;;;;;;5.57;3.72;;;21.00;27.60;;;;;;5001259;28;45908;-85
2024/01/30 14:33:49;;;;;;;5.60;4.10;;;21.10;27.60;;;;;;4990300;28;45507;-84
2024/01/30 14:36:15;;;;;;;6.38;4.00;;;21.10;27.60;;;;;;4993116;28;45177;-85
2024/01/30 14:38:42;;;;;;;5.70;4.20;;;21.10;27.70;;;;;;4994099;28;45527;-85
2024/01/30 14:41:07;;;;;;;6.93;4.03;;;21.10;27.70;;;;;;5007154;28;45378;-85
2024/01/30 14:43:33;;;;;;;5.18;3.90;;;21.10;27.70;;;;;;4987272;28;45034;-85
2024/01/30 14:46:02;;;;;;;5.15;4.03;;;21.10;27.70;;;;;;4991173;28;45279;-85
2024/01/30 14:48:28;;;;;;;5.55;3.90;;;21.10;27.80;;;;;;4982229;28;45990;-84
2024/01/30 14:50:54;;;;;;;7.00;3.90;;;21.10;27.80;;;;;;4976541;28;45132;-85
2024/01/30 14:53:20;;;;;;;6.40;4.00;;;21.10;27.80;;;;;;4998204;28;44806;-85
2024/01/30 14:55:46;;;;;;;4.75;3.63;;;21.20;27.80;;;;;;4997105;28;45568;-85
2024/01/30 14:58:12;;;;;;;6.07;3.88;;;21.20;27.80;;;;;;4974228;28;47291;-85
2024/01/30 15:00:38;;;;;;;5.32;3.88;;;21.20;27.80;;;;;;4981236;28;44841;-85
2024/01/30 15:03:05;;;;;;;4.43;3.95;;;21.20;27.90;;;;;;4992916;28;45150;-85
2024/01/30 15:05:30;;;;;;;10.48;3.63;;;21.20;27.80;;;;;;4995846;28;45217;-85
2024/01/30 15:07:56;;;;;;;8.48;4.03;;;21.20;27.90;;;;;;5012069;28;45648;-85
2024/01/30 15:10:22;;;;;;;4.65;3.63;;;21.20;27.90;;;;;;5011584;28;44787;-84
2024/01/30 15:12:49;;;;;;;5.65;4.05;;;21.20;27.90;;;;;;5024768;28;45544;-85
2024/01/30 15:15:16;;;;;;;5.88;3.70;;;21.30;27.90;;;;;;5005175;28;45294;-84
2024/01/30 15:17:42;;;;;;;5.22;3.90;;;21.30;27.90;;;;;;5002557;28;45197;-84
2024/01/30 15:20:11;;;;;;;6.07;3.75;;;21.30;27.90;;;;;;4991946;28;45125;-84
2024/01/30 15:22:40;;;;;;;5.60;3.55;;;21.30;28.00;;;;;;5007344;28;45426;-85
2024/01/30 15:25:06;;;;;;;5.70;3.58;;;21.30;28.00;;;;;;5009410;28;45685;-85
2024/01/30 15:27:32;;;;;;;6.15;4.03;;;21.40;28.00;;;;;;4993781;28;46356;-84
2024/01/30 15:29:58;;;;;;;5.25;3.80;;;21.40;28.00;;;;;;4976130;28;45038;-86
2024/01/30 15:32:25;;;;;;;5.03;4.03;;;21.40;28.10;;;;;;4986037;28;45294;-84
2024/01/30 15:34:51;;;;;;;8.00;3.63;;;21.40;28.10;;;;;;4991049;28;44789;-85
2024/01/30 15:37:17;;;;;;;5.55;3.75;;;21.40;28.10;;;;;;5003633;28;45337;-85
2024/01/30 15:39:42;;;;;;;7.40;3.75;;;21.40;28.10;;;;;;4988341;28;45266;-85
2024/01/30 15:42:09;;;;;;;5.93;3.78;;;21.50;28.10;;;;;;4969211;28;45566;-85
2024/01/30 15:44:35;;;;;;;5.85;4.05;;;21.50;28.10;;;;;;4997349;28;45267;-85
2024/01/30 15:47:00;;;;;;;7.35;3.78;;;21.50;28.10;;;;;;4985098;28;46251;-85
2024/01/30 15:49:27;;;;;;;4.60;2.92;;;21.50;28.10;;;;;;4980193;28;45505;-85
2024/01/30 15:51:52;;;;;;;6.18;3.75;;;21.50;28.10;;;;;;5010170;28;45317;-85
2024/01/30 15:54:19;;;;;;;4.53;3.42;;;21.60;28.20;;;;;;4988601;28;46009;-85
2024/01/30 15:56:45;;;;;;;6.82;4.07;;;21.60;28.20;;;;;;4990025;28;45577;-85
2024/01/30 15:59:10;;;;;;;5.70;3.88;;;21.70;28.20;;;;;;4980226;28;44847;-85
2024/01/30 16:01:36;;;;;;;6.57;3.80;;;21.70;28.20;;;;;;4991044;28;45390;-84
2024/01/30 16:04:02;;;;;;;5.78;3.88;;;21.70;28.20;;;;;;4993422;28;46241;-85
2024/01/30 16:06:27;;;;;;;8.23;3.90;;;21.70;28.20;;;;;;4997441;28;46056;-85
2024/01/30 16:08:53;;;;;;;4.70;3.72;;;21.80;28.20;;;;;;4982606;28;45260;-85
2024/01/30 16:11:19;;;;;;;7.10;3.78;;;21.70;28.20;;;;;;4976293;28;45364;-85
2024/01/30 16:13:45;;;;;;;5.32;3.85;;;21.80;28.20;;;;;;4996402;28;45316;-85
2024/01/30 16:16:11;;;;;;;7.07;3.65;;;21.80;28.20;;;;;;4975513;28;45984;-85
2024/01/30 16:18:37;;;;;;;7.35;4.03;;;21.80;28.20;;;;;;5004607;28;45168;-85
2024/01/30 16:21:03;;;;;;;6.68;3.70;;;21.90;28.20;;;;;;4976361;28;45245;-85
2024/01/30 16:23:29;;;;;;;4.72;3.75;;;21.90;28.20;;;;;;4980567;28;45070;-85
2024/01/30 16:25:57;;;;;;;7.28;3.60;;;21.90;28.20;;;;;;4991273;28;46217;-85
2024/01/30 16:28:26;;;;;;;5.65;3.63;;;22.00;28.20;;;;;;4981058;28;45429;-85
2024/01/30 16:30:52;;;;;;;7.50;4.38;;;22.00;28.20;;;;;;5000658;28;45269;-85
2024/01/30 16:33:18;;;;;;;7.97;4.10;;;22.00;28.20;;;;;;4978201;28;45646;-85
2024/01/30 16:35:44;;;;;;;5.72;4.38;;;22.00;28.20;;;;;;5010060;28;45311;-85
2024/01/30 16:38:10;;;;;;;6.82;4.55;;;22.10;28.20;;;;;;4996813;28;45196;-85
2024/01/30 16:40:35;;;;;;;6.03;3.90;;;22.10;28.20;;;;;;4985512;28;45586;-85
2024/01/30 16:43:01;;;;;;;6.97;4.30;;;22.10;28.20;;;;;;4976818;28;44955;-84
2024/01/30 16:45:30;;;;;;;6.20;3.75;;;22.10;28.20;;;;;;4974553;28;46046;-88